メインページ
METAR-TAF:

METAR-TAF

空港 :

Naval Outlying Landing Field Imperial Beach (Ream Field)

Imperial Beach, カリフォルニア州, アメリカ合衆国

緯度: 32-33-47N, 経度: 117-06-36W, 海抜: 7m

現時点の気象観測

当レポートは25分前の07:56(UTC)に作成
東/北東の風 3kt
気温 12°C
湿度 88%
気圧 1018 hPa
視程: 12.9km
晴天

METAR: KNRS 260756Z AUTO 07003KT 8SM CLR 12/10 A3006 RMK AO2 SLP179 T01170100 401890089 $

時間: 01:21 (08:21 UTC)


TAF: 見つかりません

4,000以上の空港の気象観測と天気予報(METAR報とTAF報)

利用可能な観測所は地図上に黄色い丸と赤い丸で示す。

丸の上にカーソルを重ねると観測所名を参照できる。

次にクリックすると気象観測と天気予報を参照できる。

マップの切り替え:黒色「×」印の緑ボタンをクリックして拡大、「-」印の緑ボタンをクリックして縮小、緑色の三角印をクリックして隣りの地図に切り替え


METAR-TAF: